Time;durP1;ratioP1;P1;durP2;ratioP2;P2;SDS_P1;SDS_P2;PMS_P1;PMS_P2;Temp;Humidity;BMP_temperature;BMP_pressure;BME280_temperature;BME280_humidity;BME280_pressure;Samples;Min_cycle;Max_cycle;Signal;HPM_P1;HPM_P2
2022/06/15 00:00:53;;;;;;;7.82;4.00;;;;;;;13.34;73.50;101851.28;4919428;29;20035;-80
2022/06/15 00:03:18;;;;;;;6.80;3.78;;;;;;;13.36;73.56;101838.81;4948581;29;20023;-80
2022/06/15 00:05:44;;;;;;;6.47;3.85;;;;;;;13.26;73.77;101833.31;4948838;29;20085;-81
2022/06/15 00:08:11;;;;;;;7.35;3.85;;;;;;;13.23;74.05;101840.63;4948061;29;20031;-80
2022/06/15 00:10:36;;;;;;;10.40;4.30;;;;;;;13.19;73.99;101837.31;4932549;29;20051;-83
2022/06/15 00:13:02;;;;;;;8.43;4.25;;;;;;;13.14;73.90;101842.88;4933877;29;20083;-80
2022/06/15 00:15:31;;;;;;;8.07;4.00;;;;;;;13.17;74.53;101833.94;4933331;29;20111;-81
2022/06/15 00:17:56;;;;;;;7.78;3.83;;;;;;;13.13;74.57;101838.56;4939887;29;20031;-80
2022/06/15 00:20:22;;;;;;;7.47;4.00;;;;;;;13.09;74.90;101836.22;4953197;29;20023;-83
2022/06/15 00:22:47;;;;;;;6.97;3.80;;;;;;;13.03;74.90;101831.38;4934226;29;20105;-80
2022/06/15 00:25:13;;;;;;;6.28;4.38;;;;;;;13.01;74.76;101828.84;4946785;29;20047;-80
2022/06/15 00:27:39;;;;;;;5.90;3.95;;;;;;;12.99;75.19;101836.03;4931405;29;20028;-82
2022/06/15 00:30:05;;;;;;;8.45;4.45;;;;;;;12.98;74.73;101833.50;4930933;29;20031;-82
2022/06/15 00:32:31;;;;;;;8.50;5.03;;;;;;;12.84;75.18;101839.72;4932444;29;20020;-80
2022/06/15 00:34:57;;;;;;;11.77;5.13;;;;;;;12.80;75.21;101846.13;4932378;29;20079;-82
2022/06/15 00:37:22;;;;;;;9.57;5.30;;;;;;;12.75;75.28;101838.53;4932180;29;20031;-82
2022/06/15 00:39:48;;;;;;;12.25;5.22;;;;;;;12.73;75.54;101829.84;4932269;29;20343;-82
2022/06/15 00:42:13;;;;;;;9.85;5.00;;;;;;;12.69;75.95;101830.16;4910739;29;20064;-82
2022/06/15 00:44:39;;;;;;;10.50;4.80;;;;;;;12.62;76.22;101829.72;4912733;29;20032;-82
2022/06/15 00:47:14;;;;;;;7.15;4.90;;;;;;;12.63;76.16;101830.59;4913468;29;20510;-82
2022/06/15 00:49:51;;;;;;;8.20;4.82;;;;;;;12.63;75.94;101828.78;4937439;29;20058;-82
2022/06/15 00:52:28;;;;;;;7.60;4.45;;;;;;;12.53;76.38;101828.56;4951698;29;20019;-82
2022/06/15 00:54:54;;;;;;;9.68;4.95;;;;;;;12.51;76.39;101821.69;4949680;29;20031;-82
2022/06/15 00:57:20;;;;;;;9.55;4.97;;;;;;;12.51;76.56;101825.19;4935696;29;20086;-80
2022/06/15 00:59:53;;;;;;;8.10;4.60;;;;;;;12.52;76.64;101821.59;4929816;29;20403;-80
2022/06/15 01:02:19;;;;;;;;;;;;;;;12.67;73.63;101829.44;4913907;29;20387;-80
2022/06/15 01:04:53;;;;;;;8.70;5.47;;;;;;;12.38;76.73;101824.28;4942048;28;19915;-82
2022/06/15 01:07:44;;;;;;;8.65;5.45;;;;;;;12.38;76.26;101821.63;4952179;29;20034;-82
2022/06/15 01:10:21;;;;;;;7.45;4.75;;;;;;;12.31;77.13;101812.44;4942983;29;20517;-81
2022/06/15 01:13:14;;;;;;;8.07;5.00;;;;;;;12.31;77.37;101811.59;4946345;29;20032;-81
2022/06/15 01:15:49;;;;;;;9.15;5.43;;;;;;;12.25;77.22;101818.13;4930155;29;20066;-81
2022/06/15 01:18:39;;;;;;;11.20;5.72;;;;;;;12.21;77.68;101814.84;4940888;29;20031;-81
2022/06/15 01:21:18;;;;;;;8.77;5.20;;;;;;;12.16;77.72;101813.44;4931721;29;20090;-81
2022/06/15 01:24:02;;;;;;;9.02;5.18;;;;;;;12.15;77.96;101812.59;4914946;29;20031;-81
2022/06/15 01:26:48;;;;;;;14.82;5.38;;;;;;;12.14;77.90;101820.63;4931727;29;20098;-81
2022/06/15 01:29:22;;;;;;;8.20;5.13;;;;;;;12.06;78.26;101815.00;4932742;29;20034;-81
2022/06/15 01:32:03;;;;;;;8.75;5.47;;;;;;;12.10;78.26;101819.13;4932115;29;20537;-81
2022/06/15 01:34:35;;;;;;;11.60;5.45;;;;;;;12.01;78.69;101810.03;4912866;29;20066;-81
2022/06/15 01:37:08;;;;;;;8.40;5.25;;;;;;;12.03;78.93;101808.13;4932653;29;20035;-81
2022/06/15 01:39:47;;;;;;;8.13;5.38;;;;;;;12.00;78.75;101815.38;4931097;29;20499;-81
2022/06/15 01:42:29;;;;;;;7.45;5.10;;;;;;;11.97;78.84;101813.78;4931782;29;20036;-81
2022/06/15 01:44:59;;;;;;;9.95;5.65;;;;;;;11.89;79.61;101809.00;4931428;29;20040;-81
2022/06/15 01:47:27;;;;;;;11.02;5.80;;;;;;;11.89;79.58;101808.16;4930982;29;20051;-81
2022/06/15 01:49:58;;;;;;;11.13;6.13;;;;;;;11.88;79.61;101807.31;4940942;29;20847;-81
2022/06/15 01:52:29;;;;;;;12.50;5.57;;;;;;;11.89;79.56;101801.09;4945428;29;20412;-81
2022/06/15 01:55:05;;;;;;;6.93;5.22;;;;;;;11.85;79.77;101804.03;4945854;29;20036;-81
2022/06/15 01:57:35;;;;;;;7.13;5.35;;;;;;;11.80;79.47;101801.69;4945935;29;20059;-81
2022/06/15 02:00:08;;;;;;;8.35;5.13;;;;;;;11.77;79.80;101804.47;4946319;29;20442;-80
2022/06/15 02:02:49;;;;;;;7.18;5.13;;;;;;;11.79;79.88;101802.63;4927862;29;20118;-83
2022/06/15 02:05:38;;;;;;;7.38;5.28;;;;;;;11.81;79.59;101792.81;4956727;28;20031;-80
2022/06/15 02:08:15;;;;;;;11.98;5.63;;;;;;;11.78;79.55;101794.81;4913868;29;20030;-80
2022/06/15 02:11:01;;;;;;;8.55;5.40;;;;;;;11.76;79.71;101794.88;4930749;29;20052;-82
2022/06/15 02:13:40;;;;;;;8.30;5.25;;;;;;;11.71;80.33;101789.06;4912835;29;20055;-82
2022/06/15 02:16:12;;;;;;;6.57;5.10;;;;;;;11.65;80.67;101789.47;4895070;29;20031;-82
2022/06/15 02:18:42;;;;;;;11.35;5.65;;;;;;;11.64;80.25;101793.03;4935460;29;20027;-82
2022/06/15 02:21:13;;;;;;;10.52;5.30;;;;;;;11.61;80.47;101785.31;4952719;28;20500;-82
2022/06/15 02:23:41;;;;;;;8.27;5.53;;;;;;;11.58;80.60;101788.13;4946354;29;20083;-82
2022/06/15 02:26:07;;;;;;;8.05;5.20;;;;;;;11.52;80.92;101781.44;4931572;29;20035;-83
2022/06/15 02:28:37;;;;;;;13.55;5.50;;;;;;;11.53;80.67;101779.66;4914570;29;20036;-83
2022/06/15 02:31:03;;;;;;;6.55;5.15;;;;;;;11.48;80.83;101779.94;4945510;29;20378;-82
2022/06/15 02:33:36;;;;;;;8.77;5.80;;;;;;;11.52;80.98;101778.81;4950310;29;20031;-83
2022/06/15 02:36:02;;;;;;;9.13;5.47;;;;;;;11.44;81.25;101777.63;4918064;29;20035;-83
2022/06/15 02:38:31;;;;;;;8.55;5.60;;;;;;;11.51;81.12;101778.91;4918639;29;20482;-82
2022/06/15 02:40:58;;;;;;;8.73;5.57;;;;;;;11.47;81.65;101778.25;4930043;29;20036;-82
2022/06/15 02:43:29;;;;;;;7.72;5.75;;;;;;;11.45;81.72;101771.41;4934939;29;20032;-83
2022/06/15 02:45:58;;;;;;;11.40;5.75;;;;;;;11.47;81.20;101777.41;4933094;29;20482;-83
2022/06/15 02:48:24;;;;;;;10.25;5.75;;;;;;;11.40;81.56;101770.84;4937561;29;20034;-83
2022/06/15 02:50:54;;;;;;;7.07;5.38;;;;;;;11.44;81.11;101769.72;4953602;29;20023;-82
2022/06/15 02:53:23;;;;;;;11.63;5.95;;;;;;;11.41;81.71;101769.91;4954264;29;20050;-83
2022/06/15 02:55:51;;;;;;;9.35;5.90;;;;;;;11.33;81.69;101764.28;4940009;29;20028;-82
2022/06/15 02:58:28;;;;;;;7.72;5.43;;;;;;;11.38;81.13;101768.31;4931677;29;20032;-83
2022/06/15 03:00:55;;;;;;;10.63;5.43;;;;;;;11.41;81.39;101770.75;4917205;29;20028;-82
2022/06/15 03:03:23;;;;;;;8.05;5.40;;;;;;;11.31;81.72;101761.72;4932871;29;20038;-80
2022/06/15 03:05:52;;;;;;;9.02;5.50;;;;;;;11.34;81.60;101763.31;4964348;28;20200;-83
2022/06/15 03:08:19;;;;;;;9.30;5.72;;;;;;;11.28;81.18;101765.41;4953358;29;20093;-81
2022/06/15 03:10:44;;;;;;;10.00;5.65;;;;;;;11.30;81.48;101763.53;4952263;29;20098;-81
2022/06/15 03:13:10;;;;;;;11.32;6.00;;;;;;;11.27;81.77;101768.13;4918400;29;20023;-83
2022/06/15 03:15:36;;;;;;;7.97;5.93;;;;;;;11.17;82.09;101754.66;4931506;29;20034;-83
2022/06/15 03:18:03;;;;;;;10.45;5.70;;;;;;;11.17;82.43;101759.94;4940740;29;20030;-80
2022/06/15 03:20:31;;;;;;;10.93;5.75;;;;;;;11.23;82.47;101762.22;4953363;29;20031;-80
2022/06/15 03:22:56;;;;;;;7.85;5.95;;;;;;;11.25;82.97;101762.97;4953165;29;20062;-80
2022/06/15 03:25:22;;;;;;;8.95;6.00;;;;;;;11.24;82.40;101757.78;4947126;29;20082;-83
2022/06/15 03:27:48;;;;;;;7.90;5.88;;;;;;;11.27;82.55;101765.50;4933691;29;20067;-83
2022/06/15 03:30:14;;;;;;;11.50;6.20;;;;;;;11.20;82.79;101765.00;4934148;29;20054;-84
2022/06/15 03:32:39;;;;;;;9.98;5.68;;;;;;;11.23;82.41;101769.28;4912835;29;20058;-83
2022/06/15 03:35:05;;;;;;;8.80;6.13;;;;;;;11.18;82.56;101758.16;4933458;29;20513;-80
2022/06/15 03:37:31;;;;;;;10.38;6.00;;;;;;;11.21;82.73;101766.72;4934158;29;20106;-81
2022/06/15 03:39:56;;;;;;;10.60;6.32;;;;;;;11.24;83.00;101770.97;4913561;29;20447;-81
2022/06/15 03:42:24;;;;;;;8.98;6.20;;;;;;;11.22;83.16;101771.06;4915786;29;20218;-81
2022/06/15 03:44:51;;;;;;;11.35;6.00;;;;;;;11.24;82.56;101774.44;4929601;29;20111;-81
2022/06/15 03:47:20;;;;;;;10.25;5.95;;;;;;;11.19;82.75;101773.84;4914907;29;20079;-81
2022/06/15 03:49:50;;;;;;;9.38;5.88;;;;;;;11.17;83.08;101774.88;4940757;28;20024;-81
2022/06/15 03:52:17;;;;;;;9.10;5.53;;;;;;;11.16;82.93;101778.47;4934388;29;20423;-81
2022/06/15 03:54:43;;;;;;;11.07;6.13;;;;;;;11.17;83.13;101773.09;4933563;29;20505;-81
2022/06/15 03:57:11;;;;;;;11.43;6.80;;;;;;;11.21;83.26;101771.16;4932957;29;20028;-81
2022/06/15 03:59:36;;;;;;;9.93;6.40;;;;;;;11.23;83.40;101775.38;4916732;29;20027;-81
2022/06/15 04:02:02;;;;;;;13.30;5.80;;;;;;;11.54;82.67;101776.09;4932334;29;20042;-81
2022/06/15 04:04:31;;;;;;;10.20;5.57;;;;;;;12.29;79.89;101774.75;4937957;29;20433;-81
2022/06/15 04:06:57;;;;;;;8.13;5.18;;;;;;;13.42;75.78;101774.94;4925361;29;20070;-81
2022/06/15 04:09:22;;;;;;;8.65;4.95;;;;;;;14.34;71.72;101772.53;4932523;29;20470;-81
2022/06/15 04:11:59;;;;;;;7.35;4.63;;;;;;;15.24;68.29;101770.09;4932846;29;20082;-81
2022/06/15 04:14:29;;;;;;;11.93;4.57;;;;;;;16.35;64.29;101763.69;4915687;29;20393;-81
2022/06/15 04:16:54;;;;;;;8.77;4.18;;;;;;;16.79;61.99;101767.91;4933148;29;20531;-81
2022/06/15 04:19:25;;;;;;;11.18;4.63;;;;;;;16.84;61.61;101771.06;4933087;29;20106;-81
2022/06/15 04:21:50;;;;;;;10.38;5.00;;;;;;;16.53;61.50;101764.81;4949788;29;20478;-81
2022/06/15 04:24:17;;;;;;;8.65;4.20;;;;;;;16.44;62.93;101764.75;4934954;29;20029;-81
2022/06/15 04:26:44;;;;;;;10.30;4.60;;;;;;;15.62;63.69;101770.59;4933597;29;20024;-81
2022/06/15 04:29:10;;;;;;;8.95;4.75;;;;;;;14.96;65.45;101761.66;4932476;29;20530;-81
2022/06/15 04:31:38;;;;;;;9.38;5.35;;;;;;;14.71;66.72;101761.84;4915088;29;20478;-81
2022/06/15 04:34:04;;;;;;;9.65;5.07;;;;;;;14.35;68.15;101762.78;4947891;29;20069;-81
2022/06/15 04:36:30;;;;;;;11.68;5.47;;;;;;;14.15;69.59;101763.47;4932133;29;20073;-81
2022/06/15 04:38:56;;;;;;;11.77;5.32;;;;;;;13.90;70.51;101769.69;4915868;29;20067;-81
2022/06/15 04:41:21;;;;;;;11.30;5.50;;;;;;;14.01;70.35;101761.84;4932324;29;20079;-81
2022/06/15 04:43:46;;;;;;;8.68;5.40;;;;;;;13.72;70.68;101762.16;4928687;29;20024;-81
2022/06/15 04:46:12;;;;;;;10.98;5.53;;;;;;;13.70;71.41;101755.28;4932142;29;20032;-81
2022/06/15 04:48:37;;;;;;;9.40;5.88;;;;;;;13.52;71.38;101764.53;4935291;29;20078;-81
2022/06/15 04:51:20;;;;;;;12.30;5.43;;;;;;;13.58;72.16;101774.66;4951906;29;20027;-82
2022/06/15 04:53:46;;;;;;;8.15;5.53;;;;;;;13.43;72.32;101777.47;4934803;29;20035;-81
2022/06/15 04:56:12;;;;;;;9.98;6.05;;;;;;;13.44;73.15;101773.03;4943027;29;20086;-82
2022/06/15 04:58:39;;;;;;;12.10;5.95;;;;;;;13.39;72.39;101773.34;4930306;29;20510;-81
2022/06/15 05:01:06;;;;;;;12.18;6.30;;;;;;;13.36;73.04;101775.38;4932772;29;20027;-81
2022/06/15 05:03:31;;;;;;;11.48;5.57;;;;;;;13.40;73.44;101777.69;4939016;29;20076;-81
2022/06/15 05:05:57;;;;;;;15.25;6.18;;;;;;;13.41;73.01;101770.59;4948429;28;20036;-81
2022/06/15 05:08:23;;;;;;;11.93;6.32;;;;;;;13.42;73.38;101778.41;4915583;29;20062;-81
2022/06/15 05:10:48;;;;;;;14.48;6.45;;;;;;;13.45;73.35;101778.19;4931203;29;20059;-82
2022/06/15 05:13:14;;;;;;;12.15;5.75;;;;;;;13.51;72.57;101773.41;4932049;29;20028;-82
2022/06/15 05:15:39;;;;;;;15.52;6.15;;;;;;;13.52;72.78;101780.41;4931305;29;20128;-82
2022/06/15 05:18:06;;;;;;;10.63;6.10;;;;;;;13.55;73.53;101770.44;4938865;29;20077;-81
2022/06/15 05:20:36;;;;;;;11.20;7.03;;;;;;;13.62;72.73;101782.31;4948208;29;20023;-81
2022/06/15 05:23:02;;;;;;;12.35;6.35;;;;;;;13.61;72.46;101775.31;4930826;29;20039;-81
2022/06/15 05:25:32;;;;;;;11.30;6.72;;;;;;;13.66;72.53;101772.34;4914586;29;20058;-81
2022/06/15 05:27:57;;;;;;;15.43;6.75;;;;;;;13.70;72.60;101779.09;4932000;29;20031;-81
2022/06/15 05:30:22;;;;;;;16.33;7.13;;;;;;;13.75;72.15;101769.88;4914399;29;20412;-82
2022/06/15 05:32:48;;;;;;;13.52;6.80;;;;;;;13.77;71.79;101770.59;4930527;29;20344;-81
2022/06/15 05:35:13;;;;;;;14.95;6.75;;;;;;;13.83;71.15;101779.03;4931270;29;20040;-82
2022/06/15 05:37:39;;;;;;;11.18;6.53;;;;;;;13.92;71.50;101779.22;4930475;29;20569;-81
2022/06/15 05:40:06;;;;;;;11.48;6.30;;;;;;;13.99;71.46;101774.31;4930515;29;20024;-81
2022/06/15 05:42:32;;;;;;;13.45;6.90;;;;;;;14.11;71.70;101776.06;4930756;29;20019;-81
2022/06/15 05:44:57;;;;;;;12.93;7.10;;;;;;;14.21;71.39;101778.88;4945820;29;20448;-81
2022/06/15 05:47:23;;;;;;;11.38;7.60;;;;;;;14.26;70.68;101788.16;4930729;29;20058;-81
2022/06/15 05:49:49;;;;;;;10.98;7.13;;;;;;;14.35;70.52;101791.91;4932774;29;20466;-81
2022/06/15 05:52:14;;;;;;;13.68;7.85;;;;;;;14.39;69.96;101785.44;4931790;29;20513;-81
2022/06/15 05:54:40;;;;;;;13.35;6.88;;;;;;;14.43;69.80;101784.31;4945871;28;20024;-82
2022/06/15 05:57:15;;;;;;;15.93;7.45;;;;;;;14.50;69.60;101784.69;4945139;29;20391;-81
2022/06/15 05:59:41;;;;;;;13.70;7.38;;;;;;;14.53;69.70;101785.28;4934464;29;20058;-82
2022/06/15 06:02:09;;;;;;;17.20;8.13;;;;;;;14.58;69.43;101788.44;4918860;29;20656;-82
2022/06/15 06:04:35;;;;;;;12.18;7.53;;;;;;;14.69;68.87;101779.66;4942276;29;20066;-81
2022/06/15 06:07:00;;;;;;;15.25;7.50;;;;;;;14.77;68.86;101779.06;4935029;29;20496;-81
2022/06/15 06:09:27;;;;;;;13.60;7.07;;;;;;;14.89;69.48;101784.28;4918699;29;20048;-81
2022/06/15 06:11:53;;;;;;;21.85;8.15;;;;;;;14.96;69.23;101780.19;4918250;29;20111;-81
2022/06/15 06:14:18;;;;;;;12.32;6.78;;;;;;;14.97;67.26;101776.59;4935757;29;20111;-81
2022/06/15 06:16:43;;;;;;;12.25;7.00;;;;;;;15.05;68.22;101775.97;4935110;29;20024;-80
2022/06/15 06:19:09;;;;;;;13.15;7.50;;;;;;;15.19;68.03;101777.53;4933917;29;20535;-81
2022/06/15 06:21:36;;;;;;;12.15;6.80;;;;;;;15.29;68.12;101781.19;4951780;29;20050;-81
2022/06/15 06:24:02;;;;;;;12.55;8.10;;;;;;;15.37;67.73;101773.47;4953309;29;20034;-80
2022/06/15 06:26:31;;;;;;;13.95;7.82;;;;;;;15.50;67.81;101781.28;4954367;29;20031;-80
2022/06/15 06:28:57;;;;;;;16.40;8.85;;;;;;;15.58;67.30;101779.72;4952087;29;20031;-82
2022/06/15 06:31:23;;;;;;;10.80;7.13;;;;;;;15.64;66.44;101776.59;4954058;29;20023;-80
2022/06/15 06:33:50;;;;;;;11.68;6.82;;;;;;;15.77;67.22;101780.91;4953695;29;20545;-81
2022/06/15 06:36:27;;;;;;;14.70;7.28;;;;;;;15.86;67.30;101777.50;4926892;29;20027;-81
2022/06/15 06:38:53;;;;;;;15.30;7.43;;;;;;;16.01;66.92;101781.59;4949233;29;20050;-81
2022/06/15 06:41:23;;;;;;;11.52;7.25;;;;;;;16.14;66.21;101784.91;4935163;29;20494;-80
2022/06/15 06:43:49;;;;;;;13.85;7.00;;;;;;;16.16;65.21;101785.63;4933916;29;20338;-81
2022/06/15 06:46:15;;;;;;;12.07;7.00;;;;;;;16.21;64.71;101785.25;4934783;29;20023;-81
2022/06/15 06:48:40;;;;;;;11.73;6.95;;;;;;;16.25;64.70;101787.50;4938001;29;20030;-81
2022/06/15 06:51:06;;;;;;;14.52;6.75;;;;;;;16.34;64.19;101787.72;4953516;29;20027;-80
2022/06/15 06:53:32;;;;;;;12.68;6.90;;;;;;;16.49;64.10;101789.09;4936022;29;20074;-80
2022/06/15 06:56:05;;;;;;;13.50;6.45;;;;;;;16.63;63.49;101794.09;4950468;29;20039;-82
2022/06/15 06:58:31;;;;;;;11.95;6.28;;;;;;;16.74;63.94;101791.38;4916750;29;20027;-83
2022/06/15 07:00:56;;;;;;;10.07;6.10;;;;;;;16.92;63.84;101789.84;4933434;29;20035;-83
2022/06/15 07:03:22;;;;;;;11.93;6.13;;;;;;;17.08;62.76;101785.84;4934122;29;20032;-83
2022/06/15 07:05:48;;;;;;;12.75;6.32;;;;;;;17.21;62.43;101791.78;4950028;28;20059;-82
2022/06/15 07:08:14;;;;;;;13.40;6.93;;;;;;;17.51;62.55;101788.25;4954221;29;20085;-82
2022/06/15 07:10:40;;;;;;;12.73;6.88;;;;;;;17.74;61.44;101796.91;4952877;29;20057;-82
2022/06/15 07:13:05;;;;;;;10.98;6.47;;;;;;;17.99;60.52;101791.06;4937053;29;20537;-83
2022/06/15 07:15:31;;;;;;;10.05;5.90;;;;;;;18.22;59.04;101796.13;4934740;29;20031;-83
2022/06/15 07:18:01;;;;;;;8.20;5.63;;;;;;;18.39;58.75;101798.94;4940604;29;20031;-83
2022/06/15 07:20:27;;;;;;;8.85;5.72;;;;;;;18.51;57.51;101796.13;4954103;29;20039;-82
2022/06/15 07:22:53;;;;;;;12.18;5.65;;;;;;;18.56;56.78;101797.38;4936070;29;20385;-83
2022/06/15 07:25:18;;;;;;;11.85;6.13;;;;;;;18.85;57.00;101792.03;4952098;29;20031;-83
2022/06/15 07:27:44;;;;;;;13.75;6.50;;;;;;;19.10;56.68;101788.72;4935445;29;20596;-83
2022/06/15 07:30:15;;;;;;;11.23;5.97;;;;;;;19.27;56.11;101792.47;4934366;29;20110;-83
2022/06/15 07:32:42;;;;;;;10.48;5.93;;;;;;;19.41;54.86;101791.97;4931674;29;20020;-83
2022/06/15 07:35:16;;;;;;;13.13;5.40;;;;;;;19.61;55.34;101786.56;4934033;29;20027;-83
2022/06/15 07:37:42;;;;;;;8.02;5.40;;;;;;;19.89;53.61;101798.06;4933154;29;20546;-84
2022/06/15 07:40:08;;;;;;;12.93;5.78;;;;;;;19.96;52.56;101796.47;4933285;29;20027;-85
2022/06/15 07:42:36;;;;;;;9.30;5.13;;;;;;;20.05;52.71;101798.25;4916228;29;20031;-85
2022/06/15 07:45:02;;;;;;;11.75;5.05;;;;;;;20.10;50.59;101797.78;4947249;29;20393;-84
2022/06/15 07:50:11;;;;;;;9.90;5.97;;;;;;;20.50;51.62;101800.03;4950003;29;20090;-84
2022/06/15 07:52:40;;;;;;;10.73;5.78;;;;;;;20.56;51.22;101800.22;4934542;29;20023;-84
2022/06/15 07:55:09;;;;;;;10.65;5.15;;;;;;;20.78;51.22;101800.72;4952983;29;20027;-84
2022/06/15 07:57:35;;;;;;;9.55;5.63;;;;;;;20.93;50.61;101799.16;4938069;29;20490;-85
2022/06/15 08:00:01;;;;;;;12.32;6.13;;;;;;;20.99;50.32;101798.53;4916111;29;20031;-83
2022/06/15 08:02:27;;;;;;;11.30;5.40;;;;;;;21.01;49.77;101796.53;4933318;29;20131;-84
2022/06/15 08:04:52;;;;;;;8.63;5.28;;;;;;;21.00;48.53;101796.69;4956618;28;20102;-84
2022/06/15 08:07:18;;;;;;;9.50;5.32;;;;;;;21.14;48.83;101796.94;4952469;29;20023;-84
2022/06/15 08:09:44;;;;;;;10.55;5.05;;;;;;;21.21;47.69;101799.81;4951777;29;20664;-83
2022/06/15 08:12:11;;;;;;;10.70;4.97;;;;;;;21.23;48.94;101801.38;4942794;29;20019;-84
2022/06/15 08:14:40;;;;;;;8.60;5.22;;;;;;;21.19;48.43;101799.97;4913463;29;20039;-83
2022/06/15 08:17:07;;;;;;;11.60;5.75;;;;;;;21.32;48.60;101798.75;4916460;29;20051;-83
2022/06/15 08:19:39;;;;;;;12.25;5.40;;;;;;;21.39;49.36;101792.56;4939887;28;20028;-84
2022/06/15 08:22:06;;;;;;;9.63;5.15;;;;;;;21.55;48.09;101787.28;4946121;29;20082;-84
2022/06/15 08:24:32;;;;;;;10.20;4.60;;;;;;;21.80;47.79;101793.56;4933183;29;20398;-83
2022/06/15 08:26:57;;;;;;;8.68;4.70;;;;;;;21.82;47.82;101798.75;4933485;29;20027;-83
2022/06/15 08:29:23;;;;;;;9.02;4.30;;;;;;;21.76;46.64;101794.88;4933023;29;20055;-83
2022/06/15 08:31:48;;;;;;;9.07;4.07;;;;;;;21.76;45.54;101789.53;4932317;29;20549;-83
2022/06/15 08:34:14;;;;;;;6.80;4.35;;;;;;;21.81;45.96;101787.19;4915572;29;20051;-83
2022/06/15 08:36:39;;;;;;;7.80;3.58;;;;;;;21.83;45.68;101798.59;4947681;29;20126;-83
2022/06/15 08:39:05;;;;;;;8.32;4.15;;;;;;;21.93;45.51;101786.88;4933706;29;20181;-83
2022/06/15 08:41:40;;;;;;;9.52;4.90;;;;;;;22.09;45.11;101789.63;4932073;29;20031;-83
2022/06/15 08:44:36;;;;;;;9.13;5.03;;;;;;;22.25;45.78;101792.31;4932436;29;20086;-83
2022/06/15 08:47:28;;;;;;;10.75;4.80;;;;;;;22.47;46.01;101783.63;4954035;28;20035;-83
2022/06/15 08:50:08;;;;;;;8.90;4.53;;;;;;;22.70;46.15;101785.59;4914396;29;20063;-83
2022/06/15 08:52:51;;;;;;;12.30;4.32;;;;;;;22.71;44.82;101784.59;4931536;29;20054;-82
2022/06/15 08:55:43;;;;;;;11.25;4.07;;;;;;;22.62;44.20;101780.25;4930731;29;20032;-83
2022/06/15 08:58:24;;;;;;;9.18;3.85;;;;;;;22.69;44.24;101789.28;4925402;29;20028;-82
2022/06/15 09:00:54;;;;;;;13.50;4.20;;;;;;;22.76;44.07;101783.06;4942021;29;20039;-83
2022/06/15 09:03:34;;;;;;;10.20;4.05;;;;;;;22.86;44.14;101782.94;4917233;29;20124;-82
2022/06/15 09:06:11;;;;;;;11.50;4.25;;;;;;;22.79;43.27;101781.88;4945817;29;20051;-83
2022/06/15 09:08:50;;;;;;;8.63;4.18;;;;;;;22.86;44.19;101772.19;4914624;29;20547;-83
2022/06/15 09:11:29;;;;;;;7.93;4.30;;;;;;;22.87;43.12;101763.13;4944051;29;20039;-83
2022/06/15 09:13:57;;;;;;;10.90;4.75;;;;;;;22.89;43.22;101774.53;4932314;29;20083;-82
2022/06/15 09:16:25;;;;;;;9.30;4.30;;;;;;;23.11;43.51;101787.22;4931541;29;20036;-82
2022/06/15 09:19:01;;;;;;;11.20;3.90;;;;;;;22.88;40.50;101780.91;4931679;29;20035;-81
2022/06/15 09:21:50;;;;;;;9.77;3.70;;;;;;;23.02;42.59;101784.72;4914800;29;20027;-81
2022/06/15 09:24:35;;;;;;;8.48;3.55;;;;;;;23.09;42.87;101770.44;4931233;29;20035;-81
2022/06/15 09:27:06;;;;;;;8.18;3.80;;;;;;;23.36;42.56;101784.44;4931380;29;20035;-81
2022/06/15 09:29:41;;;;;;;10.50;4.50;;;;;;;23.55;41.41;101781.34;4915198;29;20032;-81
2022/06/15 09:32:17;;;;;;;11.30;4.05;;;;;;;23.77;41.29;101779.75;4914776;29;20024;-82
2022/06/15 09:34:51;;;;;;;8.88;3.88;;;;;;;23.83;41.28;101778.19;4931885;29;20031;-82
2022/06/15 09:37:20;;;;;;;10.95;4.10;;;;;;;23.86;41.21;101775.16;4915237;29;20066;-81
2022/06/15 09:39:45;;;;;;;9.45;4.22;;;;;;;23.94;40.63;101767.03;4914301;29;20038;-81
2022/06/15 09:42:21;;;;;;;10.52;3.97;;;;;;;24.15;40.76;101761.84;4915234;29;20478;-82
2022/06/15 09:45:12;;;;;;;7.32;4.03;;;;;;;24.05;40.98;101767.47;4914343;29;20032;-80
2022/06/15 09:47:56;;;;;;;8.60;4.03;;;;;;;24.10;39.01;101766.09;4932088;29;20437;-80
2022/06/15 09:50:30;;;;;;;7.97;3.58;;;;;;;24.14;39.73;101773.63;4930930;29;20027;-80
2022/06/15 09:52:58;;;;;;;10.18;4.35;;;;;;;24.05;39.41;101772.84;4931432;29;20032;-80
2022/06/15 09:55:37;;;;;;;8.70;3.85;;;;;;;24.15;40.23;101766.38;4932030;29;20032;-80
2022/06/15 09:58:05;;;;;;;7.88;3.72;;;;;;;24.08;38.89;101771.66;4932319;29;20486;-80
2022/06/15 10:00:31;;;;;;;10.63;4.03;;;;;;;24.04;40.34;101762.28;4930494;29;20385;-79
2022/06/15 10:03:00;;;;;;;11.38;4.13;;;;;;;24.20;40.46;101767.50;4946007;28;20062;-80
2022/06/15 10:05:40;;;;;;;7.93;3.30;;;;;;;24.31;40.64;101766.28;4928376;29;20043;-80
2022/06/15 10:08:12;;;;;;;15.63;3.85;;;;;;;24.30;39.56;101773.50;4913505;29;20110;-79
2022/06/15 10:11:00;;;;;;;9.93;4.00;;;;;;;24.53;39.15;101772.66;4930251;29;20055;-80
2022/06/15 10:13:34;;;;;;;8.77;3.63;;;;;;;24.67;39.29;101771.84;4929629;29;20023;-79
2022/06/15 10:16:17;;;;;;;7.50;3.70;;;;;;;24.58;37.98;101771.09;4939289;29;20527;-79
2022/06/15 10:18:46;;;;;;;8.20;4.10;;;;;;;24.55;37.57;101771.44;4933566;29;20083;-79
2022/06/15 10:21:14;;;;;;;12.20;3.75;;;;;;;24.71;38.40;101769.59;4930160;29;20032;-80
2022/06/15 10:23:52;;;;;;;8.40;3.65;;;;;;;24.78;39.34;101767.84;4929590;29;20059;-80
2022/06/15 10:26:29;;;;;;;7.63;3.72;;;;;;;24.78;38.19;101757.91;4931141;29;20114;-80
2022/06/15 10:28:57;;;;;;;7.32;3.20;;;;;;;25.02;39.47;101756.03;4945292;29;20040;-80
2022/06/15 10:31:27;;;;;;;10.15;4.13;;;;;;;24.85;37.56;101761.56;4946025;29;20035;-84
2022/06/15 10:33:55;;;;;;;6.32;3.50;;;;;;;25.14;38.50;101758.03;4930056;29;20363;-81
2022/06/15 10:36:35;;;;;;;6.45;3.50;;;;;;;25.22;37.88;101760.66;4898932;29;20023;-79
2022/06/15 10:39:05;;;;;;;9.45;3.53;;;;;;;25.10;38.65;101758.59;4931184;29;20030;-79
2022/06/15 10:41:46;;;;;;;8.98;3.17;;;;;;;25.27;38.58;101755.53;4931404;29;20074;-80
2022/06/15 10:44:37;;;;;;;7.57;3.40;;;;;;;25.31;38.24;101758.69;4914957;29;20057;-80
2022/06/15 10:47:24;;;;;;;8.73;3.63;;;;;;;25.21;38.50;101760.81;4915176;29;20391;-80
2022/06/15 10:49:59;;;;;;;10.73;3.88;;;;;;;25.43;38.28;101751.78;4928389;29;20130;-80
2022/06/15 10:52:59;;;;;;;11.55;4.38;;;;;;;25.50;38.99;101744.63;4935048;29;20031;-80
2022/06/15 11:04:16;;;;;;;11.00;3.72;;;;;;;25.58;38.08;101736.41;4917903;29;20460;-80
2022/06/15 11:07:12;;;;;;;13.95;3.60;;;;;;;25.69;38.07;101734.28;4934544;29;20111;-80
2022/06/15 11:10:02;;;;;;;12.40;3.80;;;;;;;25.80;37.62;101731.09;4902802;29;20048;-79
2022/06/15 11:12:43;;;;;;;8.63;3.35;;;;;;;25.73;37.59;101725.63;4933576;29;20489;-80
2022/06/15 11:15:20;;;;;;;7.40;3.00;;;;;;;25.88;38.54;101722.88;4933122;29;20055;-79
2022/06/15 11:18:04;;;;;;;10.57;3.78;;;;;;;26.04;37.33;101729.88;4950583;28;20115;-79
2022/06/15 11:20:58;;;;;;;8.48;3.47;;;;;;;26.22;36.67;101735.63;4947665;29;20114;-80
2022/06/15 11:23:36;;;;;;;8.50;3.53;;;;;;;26.23;35.43;101729.22;4917284;29;20516;-80
2022/06/15 11:27:11;;;;;;;9.32;3.75;;;;;;;26.05;35.00;101731.53;4938942;29;20043;-79
2022/06/15 11:29:43;;;;;;;8.57;4.03;;;;;;;26.28;36.60;101737.53;4933955;28;20050;-79
2022/06/15 11:32:27;;;;;;;7.90;3.47;;;;;;;26.39;37.30;101742.44;4913570;29;20016;-80
2022/06/15 11:35:06;;;;;;;7.10;3.88;;;;;;;26.20;35.99;101738.53;4924234;29;20110;-79
2022/06/15 11:37:38;;;;;;;7.72;3.83;;;;;;;26.19;36.24;101733.31;4915888;29;20119;-79
2022/06/15 11:40:24;;;;;;;;;;;;;;;26.48;37.45;101745.84;4917183;29;20032;-80
2022/06/15 11:42:51;;;;;;;7.75;3.40;;;;;;;26.45;35.31;101727.34;4941498;28;19927;-79
2022/06/15 11:45:19;;;;;;;13.50;3.28;;;;;;;26.57;35.96;101731.16;4941258;29;20047;-80
2022/06/15 11:48:29;;;;;;;7.85;3.00;;;;;;;26.84;36.60;101727.63;4924640;29;20027;-80
2022/06/15 11:51:17;;;;;;;7.28;3.00;;;;;;;26.74;35.90;101732.50;4933703;28;20066;-80